sensor_id;sensor_type;location;lat;lon;timestamp;P1;durP1;ratioP1;P2;durP2;ratioP2
73136;SDS011;67767;45.636;11.756;2023-06-10T00:01:51;18.45;;;13.85;;
73136;SDS011;67767;45.636;11.756;2023-06-10T00:04:20;17.48;;;13.15;;
73136;SDS011;67767;45.636;11.756;2023-06-10T00:06:47;18.48;;;13.75;;
73136;SDS011;67767;45.636;11.756;2023-06-10T00:09:14;20.23;;;14.07;;
73136;SDS011;67767;45.636;11.756;2023-06-10T00:11:40;17.40;;;12.98;;
73136;SDS011;67767;45.636;11.756;2023-06-10T00:14:07;21.23;;;13.57;;
73136;SDS011;67767;45.636;11.756;2023-06-10T00:16:33;18.30;;;14.30;;
73136;SDS011;67767;45.636;11.756;2023-06-10T00:18:59;19.37;;;13.73;;
73136;SDS011;67767;45.636;11.756;2023-06-10T00:21:25;21.75;;;15.07;;
73136;SDS011;67767;45.636;11.756;2023-06-10T00:23:55;18.77;;;14.52;;
73136;SDS011;67767;45.636;11.756;2023-06-10T00:26:24;18.60;;;14.38;;
73136;SDS011;67767;45.636;11.756;2023-06-10T00:28:51;19.67;;;14.68;;
73136;SDS011;67767;45.636;11.756;2023-06-10T00:31:17;20.30;;;14.90;;
73136;SDS011;67767;45.636;11.756;2023-06-10T00:33:43;18.42;;;14.57;;
73136;SDS011;67767;45.636;11.756;2023-06-10T00:36:08;21.03;;;15.03;;
73136;SDS011;67767;45.636;11.756;2023-06-10T00:38:34;21.03;;;15.23;;
73136;SDS011;67767;45.636;11.756;2023-06-10T00:41:00;19.50;;;15.30;;
73136;SDS011;67767;45.636;11.756;2023-06-10T00:43:25;21.27;;;14.97;;
73136;SDS011;67767;45.636;11.756;2023-06-10T00:45:51;20.93;;;15.80;;
73136;SDS011;67767;45.636;11.756;2023-06-10T00:48:17;21.40;;;15.25;;
73136;SDS011;67767;45.636;11.756;2023-06-10T00:50:44;24.02;;;16.15;;
73136;SDS011;67767;45.636;11.756;2023-06-10T00:53:11;22.65;;;15.80;;
73136;SDS011;67767;45.636;11.756;2023-06-10T00:55:37;20.70;;;16.37;;
73136;SDS011;67767;45.636;11.756;2023-06-10T00:58:03;23.30;;;17.38;;
73136;SDS011;67767;45.636;11.756;2023-06-10T01:00:30;23.40;;;18.20;;
73136;SDS011;67767;45.636;11.756;2023-06-10T01:02:55;24.93;;;17.80;;
73136;SDS011;67767;45.636;11.756;2023-06-10T01:05:22;24.98;;;18.20;;
73136;SDS011;67767;45.636;11.756;2023-06-10T01:08:01;24.88;;;18.55;;
73136;SDS011;67767;45.636;11.756;2023-06-10T01:10:41;23.90;;;17.85;;
73136;SDS011;67767;45.636;11.756;2023-06-10T01:13:20;23.15;;;17.15;;
73136;SDS011;67767;45.636;11.756;2023-06-10T01:15:49;22.30;;;17.70;;
73136;SDS011;67767;45.636;11.756;2023-06-10T01:18:16;26.20;;;18.42;;
73136;SDS011;67767;45.636;11.756;2023-06-10T01:20:42;25.27;;;19.13;;
73136;SDS011;67767;45.636;11.756;2023-06-10T01:23:09;27.15;;;20.33;;
73136;SDS011;67767;45.636;11.756;2023-06-10T01:25:37;26.43;;;19.53;;
73136;SDS011;67767;45.636;11.756;2023-06-10T01:28:16;29.92;;;20.25;;
73136;SDS011;67767;45.636;11.756;2023-06-10T01:33:43;30.90;;;21.60;;
73136;SDS011;67767;45.636;11.756;2023-06-10T01:36:12;27.23;;;19.70;;
73136;SDS011;67767;45.636;11.756;2023-06-10T01:38:42;27.00;;;19.40;;
73136;SDS011;67767;45.636;11.756;2023-06-10T01:41:12;28.42;;;21.23;;
73136;SDS011;67767;45.636;11.756;2023-06-10T01:43:39;28.50;;;20.17;;
73136;SDS011;67767;45.636;11.756;2023-06-10T01:46:05;32.10;;;21.75;;
73136;SDS011;67767;45.636;11.756;2023-06-10T01:48:31;29.43;;;20.90;;
73136;SDS011;67767;45.636;11.756;2023-06-10T01:50:57;29.40;;;21.02;;
73136;SDS011;67767;45.636;11.756;2023-06-10T01:53:23;26.95;;;19.85;;
73136;SDS011;67767;45.636;11.756;2023-06-10T01:55:49;31.08;;;20.77;;
73136;SDS011;67767;45.636;11.756;2023-06-10T01:58:15;29.53;;;19.90;;
73136;SDS011;67767;45.636;11.756;2023-06-10T02:00:41;30.77;;;20.37;;
73136;SDS011;67767;45.636;11.756;2023-06-10T02:03:07;29.48;;;19.92;;
73136;SDS011;67767;45.636;11.756;2023-06-10T02:05:32;27.30;;;19.27;;
73136;SDS011;67767;45.636;11.756;2023-06-10T02:07:58;28.88;;;19.67;;
73136;SDS011;67767;45.636;11.756;2023-06-10T02:10:24;28.30;;;18.17;;
73136;SDS011;67767;45.636;11.756;2023-06-10T02:12:50;25.90;;;18.42;;
73136;SDS011;67767;45.636;11.756;2023-06-10T02:15:15;26.23;;;17.77;;
73136;SDS011;67767;45.636;11.756;2023-06-10T02:17:41;26.98;;;18.10;;
73136;SDS011;67767;45.636;11.756;2023-06-10T02:20:07;26.53;;;18.87;;
73136;SDS011;67767;45.636;11.756;2023-06-10T02:22:35;25.38;;;18.02;;
73136;SDS011;67767;45.636;11.756;2023-06-10T02:25:01;25.17;;;16.75;;
73136;SDS011;67767;45.636;11.756;2023-06-10T02:27:28;27.63;;;18.13;;
73136;SDS011;67767;45.636;11.756;2023-06-10T02:29:55;25.23;;;16.90;;
73136;SDS011;67767;45.636;11.756;2023-06-10T02:32:22;25.43;;;17.57;;
73136;SDS011;67767;45.636;11.756;2023-06-10T02:34:47;26.52;;;17.98;;
73136;SDS011;67767;45.636;11.756;2023-06-10T02:37:16;23.92;;;16.33;;
73136;SDS011;67767;45.636;11.756;2023-06-10T02:39:42;25.02;;;17.23;;
73136;SDS011;67767;45.636;11.756;2023-06-10T02:42:07;27.17;;;17.77;;
73136;SDS011;67767;45.636;11.756;2023-06-10T02:44:33;27.25;;;17.20;;
73136;SDS011;67767;45.636;11.756;2023-06-10T02:46:59;27.63;;;18.87;;
73136;SDS011;67767;45.636;11.756;2023-06-10T02:49:25;27.92;;;18.45;;
73136;SDS011;67767;45.636;11.756;2023-06-10T02:51:54;28.27;;;18.80;;
73136;SDS011;67767;45.636;11.756;2023-06-10T02:54:20;28.48;;;18.67;;
73136;SDS011;67767;45.636;11.756;2023-06-10T02:56:46;25.27;;;18.07;;
73136;SDS011;67767;45.636;11.756;2023-06-10T02:59:13;27.73;;;18.52;;
73136;SDS011;67767;45.636;11.756;2023-06-10T03:01:39;37.08;;;19.30;;
73136;SDS011;67767;45.636;11.756;2023-06-10T03:04:05;30.05;;;19.00;;
73136;SDS011;67767;45.636;11.756;2023-06-10T03:06:32;28.70;;;18.30;;
73136;SDS011;67767;45.636;11.756;2023-06-10T03:09:01;26.10;;;17.87;;
73136;SDS011;67767;45.636;11.756;2023-06-10T03:11:29;26.15;;;17.90;;
73136;SDS011;67767;45.636;11.756;2023-06-10T03:13:54;27.48;;;18.48;;
73136;SDS011;67767;45.636;11.756;2023-06-10T03:16:21;25.67;;;17.67;;
73136;SDS011;67767;45.636;11.756;2023-06-10T03:18:47;27.75;;;18.60;;
73136;SDS011;67767;45.636;11.756;2023-06-10T03:21:13;28.40;;;19.08;;
73136;SDS011;67767;45.636;11.756;2023-06-10T03:23:39;28.43;;;18.73;;
73136;SDS011;67767;45.636;11.756;2023-06-10T03:26:05;27.20;;;18.33;;
73136;SDS011;67767;45.636;11.756;2023-06-10T03:28:31;26.67;;;18.47;;
73136;SDS011;67767;45.636;11.756;2023-06-10T03:30:56;26.05;;;18.50;;
73136;SDS011;67767;45.636;11.756;2023-06-10T03:33:22;28.70;;;18.83;;
73136;SDS011;67767;45.636;11.756;2023-06-10T03:35:48;31.13;;;20.13;;
73136;SDS011;67767;45.636;11.756;2023-06-10T03:38:14;28.58;;;19.15;;
73136;SDS011;67767;45.636;11.756;2023-06-10T03:40:40;30.45;;;20.65;;
73136;SDS011;67767;45.636;11.756;2023-06-10T03:43:06;29.27;;;19.77;;
73136;SDS011;67767;45.636;11.756;2023-06-10T03:45:31;31.85;;;20.17;;
73136;SDS011;67767;45.636;11.756;2023-06-10T03:47:57;32.80;;;21.83;;
73136;SDS011;67767;45.636;11.756;2023-06-10T03:50:23;29.27;;;20.45;;
73136;SDS011;67767;45.636;11.756;2023-06-10T03:52:49;31.67;;;20.95;;
73136;SDS011;67767;45.636;11.756;2023-06-10T03:55:16;29.73;;;20.40;;
73136;SDS011;67767;45.636;11.756;2023-06-10T03:57:42;31.73;;;20.60;;
73136;SDS011;67767;45.636;11.756;2023-06-10T04:00:08;31.38;;;21.17;;
73136;SDS011;67767;45.636;11.756;2023-06-10T04:02:37;32.03;;;21.08;;
73136;SDS011;67767;45.636;11.756;2023-06-10T04:05:10;31.85;;;21.02;;
73136;SDS011;67767;45.636;11.756;2023-06-10T04:07:37;32.77;;;21.83;;
73136;SDS011;67767;45.636;11.756;2023-06-10T04:10:06;35.30;;;23.00;;
73136;SDS011;67767;45.636;11.756;2023-06-10T04:12:32;32.05;;;22.08;;
73136;SDS011;67767;45.636;11.756;2023-06-10T04:14:57;33.78;;;22.27;;
73136;SDS011;67767;45.636;11.756;2023-06-10T04:17:23;31.37;;;21.33;;
73136;SDS011;67767;45.636;11.756;2023-06-10T04:19:49;34.97;;;22.05;;
73136;SDS011;67767;45.636;11.756;2023-06-10T04:22:15;32.65;;;21.95;;
73136;SDS011;67767;45.636;11.756;2023-06-10T04:24:43;31.60;;;21.93;;
73136;SDS011;67767;45.636;11.756;2023-06-10T04:27:08;35.28;;;22.13;;
73136;SDS011;67767;45.636;11.756;2023-06-10T04:29:35;33.13;;;22.85;;
73136;SDS011;67767;45.636;11.756;2023-06-10T04:32:01;32.00;;;21.15;;
73136;SDS011;67767;45.636;11.756;2023-06-10T04:34:27;31.70;;;21.47;;
73136;SDS011;67767;45.636;11.756;2023-06-10T04:36:53;30.38;;;21.27;;
73136;SDS011;67767;45.636;11.756;2023-06-10T04:39:19;29.98;;;22.10;;
73136;SDS011;67767;45.636;11.756;2023-06-10T04:41:45;31.03;;;20.97;;
73136;SDS011;67767;45.636;11.756;2023-06-10T04:44:11;32.50;;;21.75;;
73136;SDS011;67767;45.636;11.756;2023-06-10T04:46:37;32.17;;;21.73;;
73136;SDS011;67767;45.636;11.756;2023-06-10T04:49:03;34.15;;;22.73;;
73136;SDS011;67767;45.636;11.756;2023-06-10T04:51:30;33.10;;;22.17;;
73136;SDS011;67767;45.636;11.756;2023-06-10T04:53:56;35.60;;;22.05;;
73136;SDS011;67767;45.636;11.756;2023-06-10T04:56:22;33.08;;;22.27;;
73136;SDS011;67767;45.636;11.756;2023-06-10T04:58:49;35.65;;;21.75;;
73136;SDS011;67767;45.636;11.756;2023-06-10T05:01:15;31.35;;;21.95;;
73136;SDS011;67767;45.636;11.756;2023-06-10T05:03:40;30.67;;;21.77;;
73136;SDS011;67767;45.636;11.756;2023-06-10T05:06:06;31.13;;;21.42;;
73136;SDS011;67767;45.636;11.756;2023-06-10T05:08:32;32.28;;;20.65;;
73136;SDS011;67767;45.636;11.756;2023-06-10T05:10:58;30.77;;;20.00;;
73136;SDS011;67767;45.636;11.756;2023-06-10T05:13:24;28.95;;;20.08;;
73136;SDS011;67767;45.636;11.756;2023-06-10T05:15:50;27.40;;;19.80;;
73136;SDS011;67767;45.636;11.756;2023-06-10T05:18:15;28.60;;;20.48;;
73136;SDS011;67767;45.636;11.756;2023-06-10T05:20:41;30.03;;;19.67;;
73136;SDS011;67767;45.636;11.756;2023-06-10T05:23:07;27.53;;;19.27;;
73136;SDS011;67767;45.636;11.756;2023-06-10T05:25:32;28.30;;;20.40;;
73136;SDS011;67767;45.636;11.756;2023-06-10T05:27:58;28.50;;;19.30;;
73136;SDS011;67767;45.636;11.756;2023-06-10T05:30:24;26.30;;;18.42;;
73136;SDS011;67767;45.636;11.756;2023-06-10T05:32:51;25.02;;;18.20;;
73136;SDS011;67767;45.636;11.756;2023-06-10T05:35:17;23.07;;;17.47;;
73136;SDS011;67767;45.636;11.756;2023-06-10T05:37:43;21.95;;;17.13;;
73136;SDS011;67767;45.636;11.756;2023-06-10T05:40:09;25.50;;;15.00;;
73136;SDS011;67767;45.636;11.756;2023-06-10T05:42:35;18.98;;;14.50;;
73136;SDS011;67767;45.636;11.756;2023-06-10T05:45:01;19.10;;;13.30;;
73136;SDS011;67767;45.636;11.756;2023-06-10T05:47:28;19.50;;;13.88;;
73136;SDS011;67767;45.636;11.756;2023-06-10T05:49:53;17.88;;;13.07;;
73136;SDS011;67767;45.636;11.756;2023-06-10T05:52:19;16.63;;;11.67;;
73136;SDS011;67767;45.636;11.756;2023-06-10T05:54:45;15.02;;;10.65;;
73136;SDS011;67767;45.636;11.756;2023-06-10T05:57:11;14.97;;;10.43;;
73136;SDS011;67767;45.636;11.756;2023-06-10T05:59:37;17.55;;;9.38;;
73136;SDS011;67767;45.636;11.756;2023-06-10T06:02:02;14.63;;;8.57;;
73136;SDS011;67767;45.636;11.756;2023-06-10T06:04:28;11.90;;;8.07;;
73136;SDS011;67767;45.636;11.756;2023-06-10T06:06:54;12.02;;;7.95;;
73136;SDS011;67767;45.636;11.756;2023-06-10T06:09:19;14.10;;;7.73;;
73136;SDS011;67767;45.636;11.756;2023-06-10T06:11:45;13.20;;;8.63;;
73136;SDS011;67767;45.636;11.756;2023-06-10T06:14:11;17.23;;;9.00;;
73136;SDS011;67767;45.636;11.756;2023-06-10T06:16:36;14.30;;;8.73;;
73136;SDS011;67767;45.636;11.756;2023-06-10T06:19:03;14.07;;;8.80;;
73136;SDS011;67767;45.636;11.756;2023-06-10T06:21:29;12.75;;;9.10;;
73136;SDS011;67767;45.636;11.756;2023-06-10T06:23:54;12.45;;;8.75;;
73136;SDS011;67767;45.636;11.756;2023-06-10T06:26:20;10.60;;;7.07;;
73136;SDS011;67767;45.636;11.756;2023-06-10T06:28:46;12.73;;;8.18;;
73136;SDS011;67767;45.636;11.756;2023-06-10T06:31:11;10.60;;;7.70;;
73136;SDS011;67767;45.636;11.756;2023-06-10T06:33:37;11.38;;;7.43;;
73136;SDS011;67767;45.636;11.756;2023-06-10T06:36:03;9.67;;;7.40;;
73136;SDS011;67767;45.636;11.756;2023-06-10T06:38:28;10.68;;;7.30;;
73136;SDS011;67767;45.636;11.756;2023-06-10T06:40:54;8.93;;;6.50;;
73136;SDS011;67767;45.636;11.756;2023-06-10T06:43:20;10.77;;;7.50;;
73136;SDS011;67767;45.636;11.756;2023-06-10T06:45:45;10.70;;;7.20;;
73136;SDS011;67767;45.636;11.756;2023-06-10T06:48:11;10.32;;;7.22;;
73136;SDS011;67767;45.636;11.756;2023-06-10T06:50:37;20.53;;;8.40;;
73136;SDS011;67767;45.636;11.756;2023-06-10T06:53:06;18.00;;;8.70;;
73136;SDS011;67767;45.636;11.756;2023-06-10T06:55:31;14.00;;;8.82;;
73136;SDS011;67767;45.636;11.756;2023-06-10T06:57:57;12.17;;;8.47;;
73136;SDS011;67767;45.636;11.756;2023-06-10T07:00:23;13.77;;;8.70;;
73136;SDS011;67767;45.636;11.756;2023-06-10T07:02:49;12.98;;;9.00;;
73136;SDS011;67767;45.636;11.756;2023-06-10T07:05:15;13.50;;;8.67;;
73136;SDS011;67767;45.636;11.756;2023-06-10T07:07:40;13.10;;;8.10;;
73136;SDS011;67767;45.636;11.756;2023-06-10T07:10:06;11.97;;;8.40;;
73136;SDS011;67767;45.636;11.756;2023-06-10T07:12:32;12.63;;;9.32;;
73136;SDS011;67767;45.636;11.756;2023-06-10T07:14:58;11.80;;;8.73;;
73136;SDS011;67767;45.636;11.756;2023-06-10T07:17:23;13.25;;;8.63;;
73136;SDS011;67767;45.636;11.756;2023-06-10T07:19:49;13.37;;;8.93;;
73136;SDS011;67767;45.636;11.756;2023-06-10T07:22:16;13.77;;;9.63;;
73136;SDS011;67767;45.636;11.756;2023-06-10T07:24:42;12.32;;;9.00;;
73136;SDS011;67767;45.636;11.756;2023-06-10T07:27:08;15.47;;;9.27;;
73136;SDS011;67767;45.636;11.756;2023-06-10T07:29:35;12.50;;;9.32;;
73136;SDS011;67767;45.636;11.756;2023-06-10T07:32:01;12.73;;;9.48;;
73136;SDS011;67767;45.636;11.756;2023-06-10T07:34:28;12.50;;;8.93;;
73136;SDS011;67767;45.636;11.756;2023-06-10T07:36:53;11.73;;;8.37;;
73136;SDS011;67767;45.636;11.756;2023-06-10T07:39:19;11.43;;;8.30;;
73136;SDS011;67767;45.636;11.756;2023-06-10T07:41:45;13.52;;;8.93;;
73136;SDS011;67767;45.636;11.756;2023-06-10T07:44:10;12.63;;;8.90;;
73136;SDS011;67767;45.636;11.756;2023-06-10T07:46:36;12.55;;;8.98;;
73136;SDS011;67767;45.636;11.756;2023-06-10T07:49:02;12.90;;;8.43;;
73136;SDS011;67767;45.636;11.756;2023-06-10T07:51:27;11.05;;;8.10;;
73136;SDS011;67767;45.636;11.756;2023-06-10T07:53:53;11.43;;;7.70;;
73136;SDS011;67767;45.636;11.756;2023-06-10T07:56:19;10.15;;;8.07;;
73136;SDS011;67767;45.636;11.756;2023-06-10T07:58:46;11.85;;;8.20;;
73136;SDS011;67767;45.636;11.756;2023-06-10T08:01:12;10.00;;;6.67;;
73136;SDS011;67767;45.636;11.756;2023-06-10T08:03:39;9.75;;;6.22;;
73136;SDS011;67767;45.636;11.756;2023-06-10T08:06:04;12.80;;;8.90;;
73136;SDS011;67767;45.636;11.756;2023-06-10T08:08:30;12.15;;;8.98;;
73136;SDS011;67767;45.636;11.756;2023-06-10T08:10:56;15.30;;;11.85;;
73136;SDS011;67767;45.636;11.756;2023-06-10T08:13:22;19.47;;;14.27;;
73136;SDS011;67767;45.636;11.756;2023-06-10T08:15:47;17.77;;;13.07;;
73136;SDS011;67767;45.636;11.756;2023-06-10T08:18:15;15.77;;;11.17;;
73136;SDS011;67767;45.636;11.756;2023-06-10T08:20:41;15.10;;;10.05;;
73136;SDS011;67767;45.636;11.756;2023-06-10T08:23:06;12.60;;;9.33;;
73136;SDS011;67767;45.636;11.756;2023-06-10T08:25:32;12.20;;;9.02;;
73136;SDS011;67767;45.636;11.756;2023-06-10T08:27:58;13.27;;;9.70;;
73136;SDS011;67767;45.636;11.756;2023-06-10T08:30:23;12.82;;;9.55;;
73136;SDS011;67767;45.636;11.756;2023-06-10T08:32:49;14.87;;;10.50;;
73136;SDS011;67767;45.636;11.756;2023-06-10T08:35:16;16.20;;;11.77;;
73136;SDS011;67767;45.636;11.756;2023-06-10T08:37:42;15.82;;;11.20;;
73136;SDS011;67767;45.636;11.756;2023-06-10T08:40:08;16.70;;;12.00;;
73136;SDS011;67767;45.636;11.756;2023-06-10T08:45:12;15.70;;;12.55;;
73136;SDS011;67767;45.636;11.756;2023-06-10T08:47:43;19.40;;;13.33;;
73136;SDS011;67767;45.636;11.756;2023-06-10T08:50:13;19.55;;;14.43;;
73136;SDS011;67767;45.636;11.756;2023-06-10T08:52:43;20.60;;;14.32;;
73136;SDS011;67767;45.636;11.756;2023-06-10T08:57:50;18.85;;;13.88;;
73136;SDS011;67767;45.636;11.756;2023-06-10T09:00:17;18.67;;;14.33;;
73136;SDS011;67767;45.636;11.756;2023-06-10T09:02:44;19.85;;;14.40;;
73136;SDS011;67767;45.636;11.756;2023-06-10T09:05:10;19.50;;;14.43;;
73136;SDS011;67767;45.636;11.756;2023-06-10T09:07:36;19.02;;;14.23;;
73136;SDS011;67767;45.636;11.756;2023-06-10T09:10:02;22.08;;;16.05;;
73136;SDS011;67767;45.636;11.756;2023-06-10T09:12:31;20.47;;;15.20;;
73136;SDS011;67767;45.636;11.756;2023-06-10T09:14:57;20.63;;;14.57;;
73136;SDS011;67767;45.636;11.756;2023-06-10T09:17:23;17.42;;;14.13;;
73136;SDS011;67767;45.636;11.756;2023-06-10T09:19:49;17.50;;;12.70;;
73136;SDS011;67767;45.636;11.756;2023-06-10T09:22:18;14.85;;;10.60;;
73136;SDS011;67767;45.636;11.756;2023-06-10T09:24:46;14.75;;;11.30;;
73136;SDS011;67767;45.636;11.756;2023-06-10T09:27:11;14.57;;;10.98;;
73136;SDS011;67767;45.636;11.756;2023-06-10T09:29:55;17.33;;;12.13;;
73136;SDS011;67767;45.636;11.756;2023-06-10T09:32:22;15.23;;;11.30;;
73136;SDS011;67767;45.636;11.756;2023-06-10T09:34:49;14.18;;;10.30;;
73136;SDS011;67767;45.636;11.756;2023-06-10T09:37:22;14.90;;;10.70;;
73136;SDS011;67767;45.636;11.756;2023-06-10T09:40:04;16.37;;;11.70;;
73136;SDS011;67767;45.636;11.756;2023-06-10T09:42:35;12.65;;;9.15;;
73136;SDS011;67767;45.636;11.756;2023-06-10T09:45:03;15.20;;;9.68;;
73136;SDS011;67767;45.636;11.756;2023-06-10T09:47:30;12.82;;;9.00;;
73136;SDS011;67767;45.636;11.756;2023-06-10T09:49:56;13.47;;;9.87;;
73136;SDS011;67767;45.636;11.756;2023-06-10T09:52:22;13.32;;;8.95;;
73136;SDS011;67767;45.636;11.756;2023-06-10T09:54:52;16.13;;;10.88;;
73136;SDS011;67767;45.636;11.756;2023-06-10T09:57:19;16.02;;;12.45;;
73136;SDS011;67767;45.636;11.756;2023-06-10T09:59:46;15.00;;;11.63;;
73136;SDS011;67767;45.636;11.756;2023-06-10T10:02:15;20.50;;;13.65;;
73136;SDS011;67767;45.636;11.756;2023-06-10T10:04:45;18.42;;;13.60;;
73136;SDS011;67767;45.636;11.756;2023-06-10T10:07:10;18.05;;;13.05;;
73136;SDS011;67767;45.636;11.756;2023-06-10T10:09:37;21.73;;;14.93;;
73136;SDS011;67767;45.636;11.756;2023-06-10T10:14:33;18.88;;;14.35;;
73136;SDS011;67767;45.636;11.756;2023-06-10T10:16:59;20.17;;;15.95;;
73136;SDS011;67767;45.636;11.756;2023-06-10T10:19:30;21.33;;;15.33;;
73136;SDS011;67767;45.636;11.756;2023-06-10T10:22:31;20.15;;;14.40;;
73136;SDS011;67767;45.636;11.756;2023-06-10T10:24:56;20.08;;;15.38;;
73136;SDS011;67767;45.636;11.756;2023-06-10T10:27:26;21.90;;;15.30;;
73136;SDS011;67767;45.636;11.756;2023-06-10T10:29:54;20.95;;;15.38;;
73136;SDS011;67767;45.636;11.756;2023-06-10T10:32:26;23.80;;;15.73;;
73136;SDS011;67767;45.636;11.756;2023-06-10T10:35:01;22.83;;;16.30;;
73136;SDS011;67767;45.636;11.756;2023-06-10T10:37:33;22.73;;;16.30;;
73136;SDS011;67767;45.636;11.756;2023-06-10T10:40:00;20.50;;;15.07;;
73136;SDS011;67767;45.636;11.756;2023-06-10T10:42:28;23.42;;;16.52;;
73136;SDS011;67767;45.636;11.756;2023-06-10T10:44:55;21.43;;;15.20;;
73136;SDS011;67767;45.636;11.756;2023-06-10T10:47:21;21.73;;;15.63;;
73136;SDS011;67767;45.636;11.756;2023-06-10T10:49:51;23.60;;;17.65;;
73136;SDS011;67767;45.636;11.756;2023-06-10T10:52:18;23.08;;;16.77;;
73136;SDS011;67767;45.636;11.756;2023-06-10T10:54:44;24.57;;;17.80;;
73136;SDS011;67767;45.636;11.756;2023-06-10T10:57:18;22.42;;;16.08;;
73136;SDS011;67767;45.636;11.756;2023-06-10T11:02:17;21.67;;;15.83;;
73136;SDS011;67767;45.636;11.756;2023-06-10T11:04:44;23.38;;;17.13;;
73136;SDS011;67767;45.636;11.756;2023-06-10T11:07:13;21.45;;;16.70;;
73136;SDS011;67767;45.636;11.756;2023-06-10T11:10:00;22.02;;;17.10;;
73136;SDS011;67767;45.636;11.756;2023-06-10T11:15:12;21.87;;;17.20;;
73136;SDS011;67767;45.636;11.756;2023-06-10T11:21:00;22.67;;;17.33;;
73136;SDS011;67767;45.636;11.756;2023-06-10T11:31:18;24.63;;;17.40;;
73136;SDS011;67767;45.636;11.756;2023-06-10T11:33:46;22.38;;;17.20;;
73136;SDS011;67767;45.636;11.756;2023-06-10T11:36:13;22.08;;;15.40;;
73136;SDS011;67767;45.636;11.756;2023-06-10T11:38:40;23.73;;;16.92;;
73136;SDS011;67767;45.636;11.756;2023-06-10T11:41:06;24.70;;;17.60;;
73136;SDS011;67767;45.636;11.756;2023-06-10T11:43:32;23.07;;;16.90;;
73136;SDS011;67767;45.636;11.756;2023-06-10T11:45:59;23.98;;;16.35;;
73136;SDS011;67767;45.636;11.756;2023-06-10T11:48:25;24.25;;;17.55;;
73136;SDS011;67767;45.636;11.756;2023-06-10T11:50:53;25.90;;;18.35;;
73136;SDS011;67767;45.636;11.756;2023-06-10T11:53:19;26.30;;;18.40;;
73136;SDS011;67767;45.636;11.756;2023-06-10T11:55:45;24.15;;;17.52;;
73136;SDS011;67767;45.636;11.756;2023-06-10T11:58:15;24.70;;;18.23;;
73136;SDS011;67767;45.636;11.756;2023-06-10T12:00:51;22.35;;;17.67;;
73136;SDS011;67767;45.636;11.756;2023-06-10T12:03:18;24.87;;;18.30;;
73136;SDS011;67767;45.636;11.756;2023-06-10T12:06:03;23.58;;;16.77;;
73136;SDS011;67767;45.636;11.756;2023-06-10T12:08:31;25.55;;;18.05;;
73136;SDS011;67767;45.636;11.756;2023-06-10T12:10:58;23.48;;;17.02;;
73136;SDS011;67767;45.636;11.756;2023-06-10T12:13:26;25.33;;;18.92;;
73136;SDS011;67767;45.636;11.756;2023-06-10T12:15:52;24.97;;;18.70;;
73136;SDS011;67767;45.636;11.756;2023-06-10T12:18:18;24.92;;;19.05;;
73136;SDS011;67767;45.636;11.756;2023-06-10T12:20:45;25.13;;;17.27;;
73136;SDS011;67767;45.636;11.756;2023-06-10T12:23:11;23.83;;;17.45;;
73136;SDS011;67767;45.636;11.756;2023-06-10T12:25:38;23.42;;;17.40;;
73136;SDS011;67767;45.636;11.756;2023-06-10T12:28:04;27.27;;;19.53;;
73136;SDS011;67767;45.636;11.756;2023-06-10T12:30:31;26.77;;;19.13;;
73136;SDS011;67767;45.636;11.756;2023-06-10T12:32:57;23.65;;;17.95;;
73136;SDS011;67767;45.636;11.756;2023-06-10T12:35:27;24.98;;;17.88;;
73136;SDS011;67767;45.636;11.756;2023-06-10T12:40:32;26.37;;;18.63;;
73136;SDS011;67767;45.636;11.756;2023-06-10T12:43:01;24.10;;;17.83;;
73136;SDS011;67767;45.636;11.756;2023-06-10T12:48:03;25.53;;;19.47;;
73136;SDS011;67767;45.636;11.756;2023-06-10T12:50:30;24.67;;;18.30;;
73136;SDS011;67767;45.636;11.756;2023-06-10T12:52:56;26.10;;;19.55;;
73136;SDS011;67767;45.636;11.756;2023-06-10T12:55:22;24.50;;;17.53;;
73136;SDS011;67767;45.636;11.756;2023-06-10T12:57:48;24.95;;;18.52;;
73136;SDS011;67767;45.636;11.756;2023-06-10T13:00:15;24.10;;;18.58;;
73136;SDS011;67767;45.636;11.756;2023-06-10T13:02:42;28.27;;;20.77;;
73136;SDS011;67767;45.636;11.756;2023-06-10T13:05:08;27.50;;;19.13;;
73136;SDS011;67767;45.636;11.756;2023-06-10T13:07:33;22.53;;;16.43;;
73136;SDS011;67767;45.636;11.756;2023-06-10T13:09:59;21.15;;;14.93;;
73136;SDS011;67767;45.636;11.756;2023-06-10T13:12:26;21.45;;;15.07;;
73136;SDS011;67767;45.636;11.756;2023-06-10T13:14:54;18.00;;;12.13;;
73136;SDS011;67767;45.636;11.756;2023-06-10T13:17:20;17.10;;;10.10;;
73136;SDS011;67767;45.636;11.756;2023-06-10T13:19:46;14.52;;;8.57;;
73136;SDS011;67767;45.636;11.756;2023-06-10T13:22:13;12.00;;;8.48;;
73136;SDS011;67767;45.636;11.756;2023-06-10T13:24:39;12.25;;;8.50;;
73136;SDS011;67767;45.636;11.756;2023-06-10T13:27:06;14.73;;;8.57;;
73136;SDS011;67767;45.636;11.756;2023-06-10T13:29:32;12.52;;;7.72;;
73136;SDS011;67767;45.636;11.756;2023-06-10T13:31:57;12.25;;;7.45;;
73136;SDS011;67767;45.636;11.756;2023-06-10T13:34:23;9.70;;;6.03;;
73136;SDS011;67767;45.636;11.756;2023-06-10T13:36:49;11.70;;;7.30;;
73136;SDS011;67767;45.636;11.756;2023-06-10T13:39:14;17.43;;;8.27;;
73136;SDS011;67767;45.636;11.756;2023-06-10T13:41:41;14.73;;;8.25;;
73136;SDS011;67767;45.636;11.756;2023-06-10T13:44:06;10.60;;;7.35;;
73136;SDS011;67767;45.636;11.756;2023-06-10T13:46:32;12.33;;;8.27;;
73136;SDS011;67767;45.636;11.756;2023-06-10T13:48:58;14.32;;;8.25;;
73136;SDS011;67767;45.636;11.756;2023-06-10T13:51:24;11.23;;;7.40;;
73136;SDS011;67767;45.636;11.756;2023-06-10T13:53:49;18.27;;;8.00;;
73136;SDS011;67767;45.636;11.756;2023-06-10T13:56:17;11.05;;;8.15;;
73136;SDS011;67767;45.636;11.756;2023-06-10T13:58:43;12.50;;;8.57;;
73136;SDS011;67767;45.636;11.756;2023-06-10T14:01:09;11.20;;;8.10;;
73136;SDS011;67767;45.636;11.756;2023-06-10T14:03:35;11.43;;;8.00;;
73136;SDS011;67767;45.636;11.756;2023-06-10T14:06:00;13.23;;;7.78;;
73136;SDS011;67767;45.636;11.756;2023-06-10T14:08:26;11.53;;;7.30;;
73136;SDS011;67767;45.636;11.756;2023-06-10T14:10:52;11.60;;;7.68;;
73136;SDS011;67767;45.636;11.756;2023-06-10T14:13:18;14.10;;;8.70;;
73136;SDS011;67767;45.636;11.756;2023-06-10T14:15:43;12.77;;;9.40;;
73136;SDS011;67767;45.636;11.756;2023-06-10T14:18:10;12.88;;;9.45;;
73136;SDS011;67767;45.636;11.756;2023-06-10T14:20:36;17.17;;;9.33;;
73136;SDS011;67767;45.636;11.756;2023-06-10T14:23:02;12.73;;;9.35;;
73136;SDS011;67767;45.636;11.756;2023-06-10T14:25:27;12.73;;;8.77;;
73136;SDS011;67767;45.636;11.756;2023-06-10T14:27:53;13.83;;;9.37;;
73136;SDS011;67767;45.636;11.756;2023-06-10T14:30:19;15.07;;;10.50;;
73136;SDS011;67767;45.636;11.756;2023-06-10T14:32:45;11.32;;;8.75;;
73136;SDS011;67767;45.636;11.756;2023-06-10T14:35:10;11.52;;;8.23;;
73136;SDS011;67767;45.636;11.756;2023-06-10T14:37:36;12.63;;;7.97;;
73136;SDS011;67767;45.636;11.756;2023-06-10T14:40:03;11.98;;;8.27;;
73136;SDS011;67767;45.636;11.756;2023-06-10T14:42:30;11.55;;;7.45;;
73136;SDS011;67767;45.636;11.756;2023-06-10T14:44:57;13.30;;;8.47;;